Baldwinsville, New York
Current Conditions -  °F | °C
As of 8:31 PM on Thursday 27 Nov 2014 (Local Time) from KSYR Reporting Station
Broken Clouds Broken Clouds  
Wind Chill: 19°   Ceiling: 4600
Heat Index: 27°   Visibility: 10mi
Dew Point: 25°   Wind: 7mph
Humidity: 92%   Direction: 240°WSW
Pressure: 30.06"   Gusts: NA
Location:  43.16°N, 76.33°W
Report Text: KSYR 280131Z 24006KT 10SM SCT023 BKN046 M03/M04 A3006 RMK AO2 T10281039
Loading
Personal Weather Stations






























Interactive Weather Map New forecast layout! Learn more

10-Day Weather Forecast

Advertisements
Track Severe Weather on mobile